Hlavní strana
METAR-TAF:

METAR-TAF

Letiště :

Daşoguz, Turkmenistán

zeměpisná šířka: 41-45-53N, zeměpisná délka: 059-49-59E, výška: 83 m

Aktuální stav počasí

Zpráva byla vytvořena před 15 minutami, v 01:00 UTC
Severní vítr 6 kt
Teplota 13°C
Vlhkost vzduchu 67%
Tlak 1016 hPa
Viditelnost 10 km a více
Žádná oblačnost pod 1500 m, nevyskytují se cumulonimby.

METAR: UTAT 290100Z 36006KT CAVOK 13/07 Q1016 R26/CLRD70 NOSIG

Čas: 06:15 (01:15 UTC)

Předpověď počasí

Zpráva byla vytvořena před 2 hodinami a 21 minutami, v 22:54 UTC
Předpověď platná od 29 v 00 UTC do 29 v 24 UTC
Severoseverovýchodní vítr 16 kt
Viditelnost 10 km a více
Polojasno ve výšce 5000 ft
Oblačno až skoro zataženo ve výšce 10000 ft
Dočasný
od 29 v 00 UTC do 29 v 06 UTC
Severoseverozápadní vítr 16 kt

TAF: UTAT 282254Z 2900/2924 02016KT 9999 SCT050 BKN100 TEMPO 2900/2906 33016KT

Stav a předpovědi počasí z více než 4 000 letišť (zprávy METAR a TAF).

Červené a žluté tečky na mapě představují dostupné meteorologické stanice.

Když kurzor umístíte na tečku, zobrazí se název stanice.

Pak kliknutím zobrazíte stav a předpověď počasí.

Chcete-li změnit mapu, kliknutím na zelené tlačítko se znaménkem +mapu přiblížíte, kliknutím na zelené tlačítko se znaménkem – mapu oddálíte a kliknutím na zelené šipky přejdete na sousední mapy.


METAR-TAF: